Time;durP1;ratioP1;P1;durP2;ratioP2;P2;SDS_P1;SDS_P2;PMS_P1;PMS_P2;Temp;Humidity;BMP_temperature;BMP_pressure;BME280_temperature;BME280_humidity;BME280_pressure;Samples;Min_cycle;Max_cycle;Signal;HPM_P1;HPM_P2
2024/01/19 00:00:29;;;;;;;10.85;6.18;;;;;;;-3.18;100.00;101117.34;1034298;28;20663;-83
2024/01/19 00:01:00;;;;;;;18.33;7.30;;;;;;;-3.17;100.00;101116.41;1031167;28;20312;-84
2024/01/19 00:01:32;;;;;;;12.88;7.30;;;;;;;-3.16;100.00;101114.63;1031699;28;20293;-84
2024/01/19 00:02:03;;;;;;;8.98;6.75;;;;;;;-3.14;100.00;101120.53;1035319;28;20312;-83
2024/01/19 00:02:35;;;;;;;9.95;6.53;;;;;;;-3.12;100.00;101116.03;1037928;28;20778;-83
2024/01/19 00:03:07;;;;;;;9.77;8.13;;;;;;;-3.06;100.00;101120.75;1035142;28;20811;-83
2024/01/19 00:03:38;;;;;;;11.38;6.35;;;;;;;-3.08;100.00;101116.63;1030857;28;20305;-84
2024/01/19 00:04:10;;;;;;;8.57;6.00;;;;;;;-3.09;100.00;101121.00;1029699;28;20322;-83
2024/01/19 00:04:42;;;;;;;14.27;7.25;;;;;;;-3.10;100.00;101124.56;1032628;28;20663;-83
2024/01/19 00:05:15;;;;;;;9.18;6.03;;;;;;;-3.10;100.00;101129.78;1033377;28;20297;-83
2024/01/19 00:05:47;;;;;;;11.85;6.57;;;;;;;-3.12;100.00;101126.47;1031245;28;20463;-83
2024/01/19 00:06:18;;;;;;;14.02;6.28;;;;;;;-3.06;100.00;101125.16;1029558;28;20327;-83
2024/01/19 00:06:50;;;;;;;9.98;6.47;;;;;;;-3.02;100.00;101127.38;1031428;28;20776;-83
2024/01/19 00:07:21;;;;;;;10.05;6.93;;;;;;;-3.09;100.00;101121.00;1027164;28;20298;-83
2024/01/19 00:07:53;;;;;;;9.43;5.70;;;;;;;-2.97;100.00;101127.03;1029439;28;20308;-84
2024/01/19 00:08:25;;;;;;;9.40;5.68;;;;;;;-3.08;100.00;101129.66;1030249;28;20367;-83
2024/01/19 00:08:57;;;;;;;9.98;6.57;;;;;;;-3.14;100.00;101130.97;1023116;28;20312;-83
2024/01/19 00:09:29;;;;;;;9.55;7.30;;;;;;;-3.15;100.00;101126.72;1028011;28;20384;-83
2024/01/19 00:10:01;;;;;;;10.57;5.88;;;;;;;-3.17;100.00;101128.59;1035325;28;20395;-83
2024/01/19 00:10:33;;;;;;;9.98;5.70;;;;;;;-3.19;100.00;101120.91;1034756;28;20324;-83
2024/01/19 00:11:05;;;;;;;9.95;5.97;;;;;;;-3.25;100.00;101120.56;1031109;28;20305;-83
2024/01/19 00:11:37;;;;;;;9.02;6.07;;;;;;;-3.26;100.00;101122.34;1031184;28;20297;-83
2024/01/19 00:12:08;;;;;;;9.50;6.13;;;;;;;-3.33;100.00;101128.97;1032886;28;20332;-84
2024/01/19 00:12:40;;;;;;;6.75;5.75;;;;;;;-3.36;100.00;101133.59;1027810;28;20302;-83
2024/01/19 00:13:11;;;;;;;11.00;6.40;;;;;;;-3.40;100.00;101126.97;1032351;28;20309;-84
2024/01/19 00:13:43;;;;;;;9.43;6.10;;;;;;;-3.43;100.00;101120.22;1031863;28;20304;-83
2024/01/19 00:14:15;;;;;;;6.28;5.10;;;;;;;-3.45;100.00;101130.75;1035347;28;20315;-83
2024/01/19 00:14:47;;;;;;;12.65;5.53;;;;;;;-3.31;100.00;101123.63;1033736;28;20393;-83
2024/01/19 00:15:18;;;;;;;9.93;5.78;;;;;;;-3.35;100.00;101123.03;1034705;28;20345;-83
2024/01/19 00:15:56;;;;;;;10.23;5.88;;;;;;;-3.39;100.00;101123.41;1029146;28;20313;-83
2024/01/19 00:16:28;;;;;;;8.90;6.20;;;;;;;-3.51;100.00;101125.19;1032346;28;20301;-83
2024/01/19 00:16:59;;;;;;;13.60;6.35;;;;;;;-3.47;100.00;101117.03;1030443;28;21028;-83
2024/01/19 00:17:31;;;;;;;9.32;6.35;;;;;;;-3.54;100.00;101126.28;1031283;28;20309;-84
2024/01/19 00:18:03;;;;;;;11.38;6.03;;;;;;;-3.54;100.00;101125.44;1033613;28;20358;-84
2024/01/19 00:18:34;;;;;;;8.32;5.68;;;;;;;-3.44;100.00;101129.81;1029333;28;20693;-83
2024/01/19 00:19:06;;;;;;;12.35;6.28;;;;;;;-3.47;100.00;101124.84;1031268;28;20376;-83
2024/01/19 00:19:38;;;;;;;9.80;6.32;;;;;;;-3.46;100.00;101126.50;1027342;28;20325;-83
2024/01/19 00:20:10;;;;;;;12.02;6.20;;;;;;;-3.36;100.00;101125.78;1026721;28;20305;-83
2024/01/19 00:20:42;;;;;;;11.05;5.30;;;;;;;-3.29;100.00;101121.75;1025960;28;20791;-83
2024/01/19 00:21:14;;;;;;;19.20;6.43;;;;;;;-3.26;100.00;101130.16;1023625;28;20306;-83
2024/01/19 00:21:46;;;;;;;12.27;5.20;;;;;;;-3.17;100.00;101126.81;1027471;28;20337;-83
2024/01/19 00:22:17;;;;;;;8.40;5.50;;;;;;;-3.34;100.00;101123.88;1027639;28;20371;-84
2024/01/19 00:22:49;;;;;;;8.52;5.18;;;;;;;-3.45;100.00;101130.75;1026798;28;20312;-83
2024/01/19 00:23:20;;;;;;;10.60;5.38;;;;;;;-3.50;100.00;101127.69;1028914;28;20771;-83
2024/01/19 00:23:52;;;;;;;11.55;6.15;;;;;;;-3.53;100.00;101133.13;1034575;28;20288;-83
2024/01/19 00:24:24;;;;;;;12.52;5.70;;;;;;;-3.50;100.00;101137.28;1036132;28;20299;-83
2024/01/19 00:24:56;;;;;;;11.25;4.82;;;;;;;-3.56;100.00;101130.78;1035307;28;20293;-83
2024/01/19 00:25:27;;;;;;;11.00;5.88;;;;;;;-3.50;100.00;101132.91;1037566;28;20667;-83
2024/01/19 00:25:59;;;;;;;13.30;6.22;;;;;;;-3.56;100.00;101128.16;1038822;28;20979;-83
2024/01/19 00:26:32;;;;;;;14.98;5.63;;;;;;;-3.57;100.00;101131.69;1034748;28;20346;-83
2024/01/19 00:27:05;;;;;;;12.20;6.20;;;;;;;-3.52;100.00;101132.19;1033227;28;20309;-83
2024/01/19 00:27:36;;;;;;;17.95;5.50;;;;;;;-3.44;100.00;101131.59;1033119;28;20655;-83
2024/01/19 00:28:08;;;;;;;10.15;6.15;;;;;;;-3.45;100.00;101135.13;1031339;28;20301;-83
2024/01/19 00:28:39;;;;;;;9.80;5.90;;;;;;;-3.50;100.00;101132.91;1033814;28;20667;-83
2024/01/19 00:29:11;;;;;;;12.95;6.00;;;;;;;-3.47;100.00;101126.63;1030204;28;20665;-83
2024/01/19 00:29:42;;;;;;;8.13;5.25;;;;;;;-3.45;100.00;101129.94;1032881;28;20304;-83
2024/01/19 00:30:14;;;;;;;7.78;5.18;;;;;;;-3.43;100.00;101122.81;1034956;28;20308;-84
2024/01/19 00:30:45;;;;;;;11.85;7.18;;;;;;;-3.43;100.00;101123.66;1037274;28;20379;-83
2024/01/19 00:31:17;;;;;;;10.27;4.75;;;;;;;-3.40;100.00;101137.38;1036484;28;20303;-83
2024/01/19 00:31:49;;;;;;;7.43;5.30;;;;;;;-3.40;100.00;101126.97;1027185;28;20313;-83
2024/01/19 00:32:21;;;;;;;10.23;5.93;;;;;;;-3.42;100.00;101130.53;1034358;28;20674;-83
2024/01/19 00:32:52;;;;;;;9.63;5.28;;;;;;;-3.45;100.00;101129.94;1033465;28;20407;-83
2024/01/19 00:33:24;;;;;;;7.55;4.90;;;;;;;-3.49;100.00;101136.31;1034510;28;20851;-83
2024/01/19 00:33:56;;;;;;;9.13;5.85;;;;;;;-3.38;100.00;101127.66;1035119;28;20308;-83
2024/01/19 00:34:28;;;;;;;10.82;6.20;;;;;;;-3.43;100.00;101123.66;1038068;28;20308;-83
2024/01/19 00:34:59;;;;;;;11.02;5.63;;;;;;;-3.33;100.00;101131.56;1042570;28;20305;-83
2024/01/19 00:35:31;;;;;;;8.20;4.35;;;;;;;-3.28;100.00;101136.44;1038495;28;20304;-83
2024/01/19 00:36:03;;;;;;;11.40;5.47;;;;;;;-3.31;100.00;101131.44;1039018;28;20357;-83
2024/01/19 00:36:34;;;;;;;12.48;6.68;;;;;;;-3.30;100.00;101133.09;1038349;28;20303;-84
2024/01/19 00:37:07;;;;;;;10.43;4.95;;;;;;;-3.29;100.00;101129.56;1038454;28;20299;-83
2024/01/19 00:37:38;;;;;;;9.32;5.50;;;;;;;-3.34;100.00;101122.09;1032830;28;20308;-83
2024/01/19 00:38:10;;;;;;;13.18;5.88;;;;;;;-3.26;100.00;101127.56;1027650;28;20301;-83
2024/01/19 00:38:41;;;;;;;11.13;6.05;;;;;;;-3.28;100.00;101131.22;1028941;28;20371;-83
2024/01/19 00:39:14;;;;;;;18.00;4.90;;;;;;;-3.32;100.00;101135.00;1031793;28;20340;-83
2024/01/19 00:39:46;;;;;;;11.05;5.22;;;;;;;-3.21;100.00;101135.00;1037236;28;20304;-83
2024/01/19 00:40:17;;;;;;;15.80;5.05;;;;;;;-3.13;100.00;101130.03;1038452;28;20304;-83
2024/01/19 00:40:49;;;;;;;8.10;4.68;;;;;;;-3.11;100.00;101133.31;1034467;28;20300;-83
2024/01/19 00:41:21;;;;;;;10.35;5.10;;;;;;;-3.18;100.00;101137.38;1031660;28;20289;-83
2024/01/19 00:41:52;;;;;;;9.32;4.60;;;;;;;-3.26;100.00;101135.38;1038248;28;20292;-83
2024/01/19 00:42:24;;;;;;;8.13;5.00;;;;;;;-3.32;100.00;101135.00;1028424;28;20341;-83
2024/01/19 00:42:55;;;;;;;5.20;4.10;;;;;;;-3.22;100.00;101135.97;1027851;28;20505;-83
2024/01/19 00:43:27;;;;;;;7.20;4.85;;;;;;;-3.24;100.00;101137.84;1029065;28;20297;-83
2024/01/19 00:43:59;;;;;;;9.30;5.13;;;;;;;-3.17;100.00;101139.84;1028464;28;20876;-83
2024/01/19 00:44:31;;;;;;;11.45;5.28;;;;;;;-3.17;100.00;101128.59;1031997;28;20300;-83
2024/01/19 00:45:02;;;;;;;9.40;5.18;;;;;;;-3.11;100.00;101133.31;1030757;28;20312;-83
2024/01/19 00:45:35;;;;;;;9.07;5.00;;;;;;;-3.13;100.00;101136.06;1033469;28;20669;-83
2024/01/19 00:46:07;;;;;;;7.63;4.30;;;;;;;-3.15;100.00;101132.75;1038147;28;21022;-83
2024/01/19 00:46:38;;;;;;;7.35;4.53;;;;;;;-3.16;100.00;101135.47;1034613;28;20705;-83
2024/01/19 00:47:10;;;;;;;12.13;5.15;;;;;;;-3.15;100.00;101137.13;1030118;28;20312;-84
2024/01/19 00:47:41;;;;;;;6.78;4.72;;;;;;;-3.11;100.00;101135.94;1030080;28;20297;-83
2024/01/19 00:48:13;;;;;;;12.93;5.20;;;;;;;-3.16;100.00;101131.09;1032686;28;20297;-83
2024/01/19 00:48:44;;;;;;;12.98;4.25;;;;;;;-3.03;100.00;101133.53;1035110;28;20343;-84
2024/01/19 00:49:16;;;;;;;11.50;4.60;;;;;;;-2.89;100.00;101135.91;1030818;28;20301;-83
2024/01/19 00:49:48;;;;;;;11.65;5.20;;;;;;;-2.91;100.00;101134.38;1025762;28;20306;-83
2024/01/19 00:50:20;;;;;;;9.98;5.45;;;;;;;-2.92;100.00;101136.16;1031066;28;20301;-83
2024/01/19 00:50:52;;;;;;;12.10;5.95;;;;;;;-2.90;100.00;101126.44;1037222;28;20300;-83
2024/01/19 00:51:23;;;;;;;9.93;5.20;;;;;;;-2.90;100.00;101129.03;1026917;28;20376;-83
2024/01/19 00:51:55;;;;;;;14.13;5.60;;;;;;;-2.89;100.00;101133.28;1028082;28;20298;-83
2024/01/19 00:52:27;;;;;;;5.70;4.30;;;;;;;-2.91;100.00;101132.59;1030577;28;20316;-82
2024/01/19 00:52:58;;;;;;;7.80;5.10;;;;;;;-2.92;100.00;101138.75;1028501;28;20683;-83
2024/01/19 00:53:30;;;;;;;8.55;4.70;;;;;;;-2.91;100.00;101140.41;1027767;28;20309;-83
2024/01/19 00:54:03;;;;;;;13.80;5.25;;;;;;;-2.93;100.00;101139.69;1032033;28;20309;-83
2024/01/19 00:54:35;;;;;;;12.55;4.57;;;;;;;-2.89;100.00;101142.88;1032919;28;20296;-83
2024/01/19 00:55:07;;;;;;;6.63;5.20;;;;;;;-2.89;100.00;101148.94;1037262;28;20663;-83
2024/01/19 00:55:39;;;;;;;11.10;4.93;;;;;;;-2.91;100.00;101148.22;1033584;28;20648;-83
2024/01/19 00:56:10;;;;;;;7.95;4.80;;;;;;;-2.88;100.00;101141.94;1028579;28;20804;-83
2024/01/19 00:56:42;;;;;;;10.20;5.10;;;;;;;-2.86;100.00;101138.25;1032471;28;20297;-83
2024/01/19 00:57:13;;;;;;;8.60;5.53;;;;;;;-2.80;100.00;101148.19;1032423;28;20304;-83
2024/01/19 00:57:45;;;;;;;10.25;5.03;;;;;;;-2.73;100.00;101143.34;1034250;28;20312;-83
2024/01/19 00:58:16;;;;;;;8.65;5.18;;;;;;;-2.71;100.00;101136.22;1030682;28;20308;-83
2024/01/19 00:58:48;;;;;;;10.32;5.45;;;;;;;-2.71;100.00;101145.81;1030343;28;20332;-84
2024/01/19 00:59:20;;;;;;;8.07;4.70;;;;;;;-2.65;100.00;101135.72;1031563;28;20337;-83
2024/01/19 00:59:51;;;;;;;7.05;4.40;;;;;;;-2.50;100.00;101133.63;1028450;28;20737;-83
2024/01/19 01:00:23;;;;;;;11.80;5.00;;;;;;;-2.42;100.00;101140.84;1024852;28;20323;-83
2024/01/19 01:00:56;;;;;;;7.80;4.38;;;;;;;-2.44;100.00;101148.81;1030327;28;20306;-83
2024/01/19 01:01:28;;;;;;;9.10;5.15;;;;;;;-2.44;100.00;101137.56;1028187;28;20390;-84
2024/01/19 01:01:59;;;;;;;10.85;4.90;;;;;;;-2.48;100.00;101142.16;1026508;28;20294;-83
2024/01/19 01:02:31;;;;;;;8.75;4.60;;;;;;;-2.51;100.00;101140.63;1022319;28;20298;-83
2024/01/19 01:03:03;;;;;;;8.88;5.90;;;;;;;-2.58;100.00;101141.25;1027783;28;21836;-83
2024/01/19 01:03:34;;;;;;;6.00;4.45;;;;;;;-2.43;100.00;101140.03;1032820;28;20298;-83
2024/01/19 01:04:06;;;;;;;11.88;5.35;;;;;;;-2.45;100.00;101136.72;1032304;28;20886;-83
2024/01/19 01:04:38;;;;;;;7.03;4.85;;;;;;;-2.40;100.00;101145.00;1028094;28;20669;-83
2024/01/19 01:05:09;;;;;;;7.50;4.60;;;;;;;-2.39;100.00;101141.44;1033175;28;20307;-84
2024/01/19 01:05:41;;;;;;;10.95;5.13;;;;;;;-2.38;100.00;101140.47;1032376;28;20336;-83
2024/01/19 01:06:12;;;;;;;12.50;4.97;;;;;;;-2.27;100.00;101137.81;1029682;28;20728;-83
2024/01/19 01:06:44;;;;;;;9.55;4.45;;;;;;;-2.34;100.00;101141.88;1028834;28;20305;-84
2024/01/19 01:07:16;;;;;;;11.15;4.93;;;;;;;-2.40;100.00;101139.78;1030714;28;20301;-83
2024/01/19 01:07:47;;;;;;;8.20;4.82;;;;;;;-2.36;100.00;101142.97;1026861;28;20306;-83
2024/01/19 01:08:19;;;;;;;6.95;4.43;;;;;;;-2.32;100.00;101145.19;1034274;28;20300;-84
2024/01/19 01:08:50;;;;;;;14.63;5.85;;;;;;;-2.42;100.00;101141.69;1033745;28;20308;-83
2024/01/19 01:09:22;;;;;;;10.30;5.53;;;;;;;-2.49;100.00;101141.34;1034262;28;20301;-83
2024/01/19 01:09:53;;;;;;;9.64;4.18;;;;;;;-2.40;100.00;101145.00;1034177;28;20308;-83
2024/01/19 01:10:25;;;;;;;12.18;5.10;;;;;;;-2.36;100.00;101151.63;1034458;28;20432;-84
2024/01/19 01:10:56;;;;;;;6.85;4.60;;;;;;;-2.40;100.00;101147.59;1030849;28;20653;-83
2024/01/19 01:11:28;;;;;;;11.95;4.53;;;;;;;-2.44;100.00;101158.41;1032587;28;20818;-83
2024/01/19 01:12:00;;;;;;;12.95;4.55;;;;;;;-2.34;100.00;101154.91;1027246;28;20306;-83
2024/01/19 01:12:32;;;;;;;10.15;4.28;;;;;;;-2.34;100.00;101159.31;1031984;28;20780;-84
2024/01/19 01:13:04;;;;;;;5.80;4.20;;;;;;;-2.38;100.00;101163.97;1038022;28;20834;-83
2024/01/19 01:13:35;;;;;;;10.13;4.35;;;;;;;-2.42;100.00;101167.78;1030803;28;20661;-84
2024/01/19 01:14:08;;;;;;;7.22;4.65;;;;;;;-2.45;100.00;101168.03;1030985;28;20687;-83
2024/01/19 01:14:39;;;;;;;6.90;4.45;;;;;;;-2.48;100.00;101168.25;1031488;28;20313;-83
2024/01/19 01:15:11;;;;;;;9.26;4.60;;;;;;;-2.51;100.00;101174.53;1027311;28;20299;-83
2024/01/19 01:15:46;;;;;;;6.57;3.80;;;;;;;-2.52;100.00;101165.06;1025610;28;20051;-83
2024/01/19 01:16:17;;;;;;;8.85;4.53;;;;;;;-2.62;100.00;101163.31;1026420;28;20317;-83
2024/01/19 01:16:49;;;;;;;12.18;4.55;;;;;;;-2.55;100.00;101167.09;1030621;28;20301;-83
2024/01/19 01:17:20;;;;;;;6.20;4.22;;;;;;;-2.55;100.00;101161.88;1030503;28;20623;-83
2024/01/19 01:17:52;;;;;;;8.30;3.95;;;;;;;-2.48;100.00;101168.25;1027481;28;20921;-83
2024/01/19 01:18:24;;;;;;;12.45;4.95;;;;;;;-2.46;100.00;101168.16;1033333;28;20735;-83
2024/01/19 01:18:55;;;;;;;5.80;3.30;;;;;;;-2.45;100.00;101162.81;1038868;28;20367;-84
2024/01/19 01:19:27;;;;;;;10.78;4.92;;;;;;;-2.41;100.00;101164.22;1035883;28;20304;-83
2024/01/19 01:19:59;;;;;;;8.65;4.72;;;;;;;-2.37;100.00;101170.81;1032660;28;20085;-83
2024/01/19 01:20:30;;;;;;;11.57;5.00;;;;;;;-2.35;100.00;101162.88;1028743;28;20305;-83
2024/01/19 01:21:02;;;;;;;8.27;4.30;;;;;;;-2.32;100.00;101158.22;1030146;28;20695;-83
2024/01/19 01:21:34;;;;;;;9.15;4.57;;;;;;;-2.26;100.00;101162.94;1026430;28;20324;-83
2024/01/19 01:22:05;;;;;;;6.43;5.07;;;;;;;-2.30;100.00;101161.53;1025897;28;20297;-83
2024/01/19 01:22:37;;;;;;;8.60;4.30;;;;;;;-2.32;100.00;101157.41;1027697;28;20803;-83
2024/01/19 01:23:09;;;;;;;11.93;5.10;;;;;;;-2.34;100.00;101160.13;1029073;28;20661;-83
2024/01/19 01:23:40;;;;;;;8.95;5.15;;;;;;;-2.30;100.00;101156.31;1033650;28;20670;-83
2024/01/19 01:24:13;;;;;;;9.45;4.55;;;;;;;-2.33;100.00;101153.97;1040784;28;20304;-83
2024/01/19 01:24:44;;;;;;;8.77;4.70;;;;;;;-2.34;100.00;101152.31;1036073;28;20601;-83
2024/01/19 01:25:16;;;;;;;8.25;4.95;;;;;;;-2.30;100.00;101161.53;1028008;28;20302;-84
2024/01/19 01:25:47;;;;;;;9.48;4.82;;;;;;;-2.35;100.00;101148.06;1027366;28;20907;-83
2024/01/19 01:26:19;;;;;;;8.85;4.93;;;;;;;-2.36;100.00;101156.00;1026554;28;20414;-83
2024/01/19 01:26:51;;;;;;;10.57;5.50;;;;;;;-2.38;100.00;101158.75;1036572;28;20334;-83
2024/01/19 01:27:22;;;;;;;7.88;4.57;;;;;;;-2.42;100.00;101156.50;1031755;28;20383;-83
2024/01/19 01:27:54;;;;;;;7.90;5.03;;;;;;;-2.40;100.00;101160.66;1027173;28;20634;-83
2024/01/19 01:28:25;;;;;;;10.27;4.55;;;;;;;-2.35;100.00;101153.28;1023054;28;20686;-83
2024/01/19 01:28:57;;;;;;;10.84;4.50;;;;;;;-2.38;100.00;101158.75;1028085;28;20304;-83
2024/01/19 01:29:28;;;;;;;9.35;5.20;;;;;;;-2.39;100.00;101154.47;1038975;28;20042;-84
2024/01/19 01:30:05;;;;;;;7.80;4.13;;;;;;;-2.40;100.00;101158.03;1030306;28;20297;-83
2024/01/19 01:30:37;;;;;;;7.50;5.18;;;;;;;-2.41;100.00;101164.22;1026932;28;20799;-83
2024/01/19 01:31:09;;;;;;;10.32;4.38;;;;;;;-2.38;100.00;101158.75;1032354;28;20289;-83
2024/01/19 01:31:41;;;;;;;9.52;4.60;;;;;;;-2.24;100.00;101171.47;1034412;28;20300;-83
2024/01/19 01:32:12;;;;;;;8.85;4.15;;;;;;;-2.29;100.00;101168.41;1035045;28;20311;-83
2024/01/19 01:32:44;;;;;;;11.60;4.82;;;;;;;-2.42;100.00;101162.56;1026811;28;20309;-83
2024/01/19 01:33:16;;;;;;;10.52;5.00;;;;;;;-2.44;100.00;101172.28;1024012;28;20829;-84
2024/01/19 01:33:48;;;;;;;8.13;4.80;;;;;;;-2.44;100.00;101174.91;1027647;28;20394;-83
2024/01/19 01:34:20;;;;;;;9.82;4.57;;;;;;;-2.41;100.00;101171.19;1032500;28;20297;-83
2024/01/19 01:34:51;;;;;;;11.10;4.07;;;;;;;-2.41;100.00;101172.03;1030727;28;20312;-83
2024/01/19 01:35:23;;;;;;;11.18;4.88;;;;;;;-2.32;100.00;101175.66;1026421;28;20306;-83
2024/01/19 01:35:54;;;;;;;12.70;4.15;;;;;;;-2.27;100.00;101171.72;1033102;28;20300;-83
2024/01/19 01:36:26;;;;;;;9.30;4.15;;;;;;;-2.24;100.00;101171.47;1035001;28;20666;-83
2024/01/19 01:36:59;;;;;;;9.32;4.63;;;;;;;-2.23;100.00;101172.28;1037338;28;20829;-83
2024/01/19 01:37:31;;;;;;;11.95;5.55;;;;;;;-2.17;100.00;101176.22;1035355;28;20301;-83
2024/01/19 01:38:03;;;;;;;5.07;3.97;;;;;;;-2.16;100.00;101176.09;1030668;28;20796;-83
2024/01/19 01:38:35;;;;;;;12.00;3.98;;;;;;;-2.10;100.00;101178.19;1028884;28;20676;-84
2024/01/19 01:39:07;;;;;;;8.50;4.05;;;;;;;-2.14;100.00;101178.56;1023313;28;20544;-84
2024/01/19 01:39:38;;;;;;;13.45;4.50;;;;;;;-2.15;100.00;101179.53;1034428;28;20307;-83
2024/01/19 01:40:13;;;;;;;9.85;4.75;;;;;;;-2.20;100.00;101183.31;1038867;28;20295;-83
2024/01/19 01:40:45;;;;;;;13.85;4.25;;;;;;;-2.16;100.00;101183.91;1033193;28;20672;-83
2024/01/19 01:41:16;;;;;;;6.97;4.47;;;;;;;-2.14;100.00;101186.41;1026949;28;20703;-84
2024/01/19 01:41:48;;;;;;;9.30;4.00;;;;;;;-2.13;100.00;101188.03;1026296;28;20773;-84
2024/01/19 01:42:20;;;;;;;9.32;4.15;;;;;;;-2.08;100.00;101191.94;1027595;28;20318;-83
2024/01/19 01:42:56;;;;;;;6.45;3.60;;;;;;;-2.08;100.00;101183.28;1025311;28;20326;-84
2024/01/19 01:43:28;;;;;;;10.40;4.15;;;;;;;-2.03;100.00;101183.72;1025558;28;20313;-84
2024/01/19 01:44:00;;;;;;;6.10;4.00;;;;;;;-2.03;100.00;101183.72;1025704;28;20515;-84
2024/01/19 01:44:31;;;;;;;11.10;4.38;;;;;;;-2.01;100.00;101187.03;1031062;28;20403;-83
2024/01/19 01:45:04;;;;;;;7.05;3.78;;;;;;;-1.95;100.00;101184.72;1034317;28;20515;-84
2024/01/19 01:45:36;;;;;;;7.85;4.60;;;;;;;-1.92;100.00;101188.88;1037360;28;20463;-84
2024/01/19 01:46:07;;;;;;;9.90;4.30;;;;;;;-1.89;100.00;101193.88;1028616;28;20313;-83
2024/01/19 01:46:39;;;;;;;5.75;4.35;;;;;;;-1.91;100.00;101187.94;1033789;28;20691;-83
2024/01/19 01:47:10;;;;;;;9.60;5.10;;;;;;;-1.92;100.00;101191.47;1035410;28;20300;-83
2024/01/19 01:47:42;;;;;;;7.97;3.92;;;;;;;-1.92;100.00;101194.09;1034584;28;20383;-83
2024/01/19 01:48:14;;;;;;;16.73;4.22;;;;;;;-1.95;100.00;101191.75;1031564;28;20305;-83
2024/01/19 01:48:46;;;;;;;6.93;4.43;;;;;;;-1.92;100.00;101196.69;1028556;28;20388;-83
2024/01/19 01:49:17;;;;;;;10.07;4.38;;;;;;;-1.94;100.00;101193.38;1031629;28;20305;-84
2024/01/19 01:49:50;;;;;;;5.90;4.10;;;;;;;-1.95;100.00;101196.97;1032539;28;20297;-83
2024/01/19 01:50:22;;;;;;;6.72;4.13;;;;;;;-1.91;100.00;101187.94;1036892;28;20524;-83
2024/01/19 01:50:55;;;;;;;10.57;4.90;;;;;;;-1.90;100.00;101193.03;1034168;28;20718;-83
2024/01/19 01:51:27;;;;;;;9.13;3.53;;;;;;;-1.91;100.00;101193.16;1030437;28;20766;-84
2024/01/19 01:51:59;;;;;;;6.78;4.15;;;;;;;-1.97;100.00;101196.25;1032627;28;20526;-83
2024/01/19 01:52:31;;;;;;;5.55;3.55;;;;;;;-1.91;100.00;101198.38;1028632;28;20301;-84
2024/01/19 01:53:03;;;;;;;6.68;3.90;;;;;;;-1.95;100.00;101194.34;1027613;28;20728;-83
2024/01/19 01:53:34;;;;;;;8.70;4.25;;;;;;;-2.01;100.00;101197.47;1035644;28;20309;-83
2024/01/19 01:54:07;;;;;;;7.30;3.72;;;;;;;-2.01;100.00;101194.84;1029375;28;20309;-83
2024/01/19 01:54:39;;;;;;;6.63;4.15;;;;;;;-2.02;100.00;101198.44;1029220;28;20310;-83
2024/01/19 01:55:10;;;;;;;5.18;3.78;;;;;;;-2.02;100.00;101190.59;1031741;28;20827;-83
2024/01/19 01:55:42;;;;;;;5.68;4.05;;;;;;;-2.13;100.00;101188.88;1028796;28;20826;-84
2024/01/19 01:56:14;;;;;;;7.63;4.05;;;;;;;-2.10;100.00;101198.22;1028567;28;20305;-84
2024/01/19 01:56:47;;;;;;;3.10;2.85;;;;;;;-2.09;100.00;101194.66;1032332;28;20308;-83
2024/01/19 01:57:20;;;;;;;7.00;3.50;;;;;;;-2.09;100.00;101192.06;1031109;28;20297;-84
2024/01/19 01:57:52;;;;;;;4.38;3.50;;;;;;;-2.10;100.00;101187.78;1030087;28;20724;-83
2024/01/19 01:58:24;;;;;;;5.85;3.47;;;;;;;-2.16;100.00;101193.53;1031482;28;20297;-83
2024/01/19 01:58:55;;;;;;;4.18;3.60;;;;;;;-2.19;100.00;101195.44;1028276;28;20732;-83
2024/01/19 01:59:28;;;;;;;5.05;3.88;;;;;;;-2.17;100.00;101197.91;1025361;28;20310;-83
2024/01/19 01:59:59;;;;;;;5.78;3.65;;;;;;;-2.18;100.00;101193.66;1025713;28;20302;-84
2024/01/19 02:00:32;;;;;;;7.78;3.60;;;;;;;-2.15;100.00;101195.19;1024334;28;20801;-83
2024/01/19 02:01:04;;;;;;;10.38;3.92;;;;;;;-2.13;100.00;101203.72;1027551;28;20388;-83
2024/01/19 02:01:36;;;;;;;4.97;3.60;;;;;;;-2.22;100.00;101195.66;1028506;28;20839;-84
2024/01/19 02:02:07;;;;;;;9.05;4.72;;;;;;;-2.21;100.00;101192.09;1027166;28;20400;-83
2024/01/19 02:02:39;;;;;;;8.48;4.30;;;;;;;-2.23;100.00;101201.00;1030136;28;20301;-83
2024/01/19 02:03:13;;;;;;;5.35;3.80;;;;;;;-2.19;100.00;101200.66;1033980;28;20391;-84
2024/01/19 02:03:46;;;;;;;8.43;3.78;;;;;;;-2.25;100.00;101198.50;1037393;28;20335;-83
2024/01/19 02:04:18;;;;;;;10.50;3.88;;;;;;;-2.25;100.00;101195.91;1035061;28;20311;-83
2024/01/19 02:04:51;;;;;;;5.65;4.32;;;;;;;-2.27;100.00;101191.75;1031696;28;20301;-84
2024/01/19 02:05:22;;;;;;;11.88;3.55;;;;;;;-2.29;100.00;101189.28;1034076;28;20297;-83
2024/01/19 02:05:54;;;;;;;6.82;3.38;;;;;;;-2.39;100.00;101193.59;1039461;28;20300;-84
2024/01/19 02:06:29;;;;;;;4.93;3.50;;;;;;;-2.32;100.00;101199.16;1029702;28;20301;-83
2024/01/19 02:07:01;;;;;;;7.25;3.85;;;;;;;-2.32;100.00;101199.97;1032031;28;20301;-83
2024/01/19 02:07:33;;;;;;;11.32;3.83;;;;;;;-2.30;100.00;101195.44;1029671;28;20439;-83
2024/01/19 02:08:05;;;;;;;16.73;3.78;;;;;;;-2.30;100.00;101198.06;1035717;28;20376;-83
2024/01/19 02:08:39;;;;;;;4.38;3.58;;;;;;;-2.30;100.00;101192.84;1031324;28;20632;-83
2024/01/19 02:09:11;;;;;;;5.80;3.85;;;;;;;-2.36;100.00;101193.34;1032284;28;20451;-84
2024/01/19 02:09:43;;;;;;;5.13;3.25;;;;;;;-2.33;100.00;101200.09;1030350;28;20301;-83
2024/01/19 02:10:14;;;;;;;9.15;3.85;;;;;;;-2.26;100.00;101196.84;1033941;28;20823;-83
2024/01/19 02:10:46;;;;;;;4.85;3.67;;;;;;;-2.32;100.00;101199.97;1025033;28;20298;-84
2024/01/19 02:11:18;;;;;;;5.45;3.50;;;;;;;-2.33;100.00;101198.31;1028175;28;20301;-83
2024/01/19 02:11:49;;;;;;;7.85;3.50;;;;;;;-2.39;100.00;101204.03;1038151;28;20308;-83
2024/01/19 02:12:21;;;;;;;6.20;3.67;;;;;;;-2.49;100.00;101197.88;1036958;28;20295;-84
2024/01/19 02:12:55;;;;;;;4.60;3.85;;;;;;;-2.55;100.00;101198.38;1033168;28;20408;-84
2024/01/19 02:13:26;;;;;;;6.10;3.75;;;;;;;-2.55;100.00;101201.81;1031785;28;20792;-83
2024/01/19 02:13:58;;;;;;;5.03;3.92;;;;;;;-2.50;100.00;101197.06;1031376;28;20640;-84
2024/01/19 02:14:29;;;;;;;3.17;2.90;;;;;;;-2.55;100.00;101200.97;1028149;28;20692;-83
2024/01/19 02:15:01;;;;;;;4.57;3.67;;;;;;;-2.56;100.00;101201.94;1035331;28;20296;-83
2024/01/19 02:15:35;;;;;;;9.48;3.70;;;;;;;-2.52;100.00;101200.75;1032518;28;20315;-83
2024/01/19 02:16:07;;;;;;;3.85;3.13;;;;;;;-2.53;100.00;101205.13;1032594;28;20780;-84
2024/01/19 02:16:38;;;;;;;5.72;3.83;;;;;;;-2.61;100.00;101201.47;1035093;28;20316;-84
2024/01/19 02:17:10;;;;;;;11.68;3.80;;;;;;;-2.56;100.00;101201.94;1038678;28;20311;-84
2024/01/19 02:17:41;;;;;;;3.75;3.17;;;;;;;-2.45;100.00;101208.91;1033688;28;20304;-83
2024/01/19 02:18:13;;;;;;;11.73;3.13;;;;;;;-2.45;100.00;101204.53;1034605;28;20293;-83
2024/01/19 02:18:45;;;;;;;5.50;3.33;;;;;;;-2.48;100.00;101204.75;1031713;28;20300;-83
2024/01/19 02:19:17;;;;;;;6.78;3.78;;;;;;;-2.48;100.00;101209.97;1028564;28;20298;-84
2024/01/19 02:19:49;;;;;;;4.65;3.85;;;;;;;-2.46;100.00;101215.91;1033628;28;20423;-83
2024/01/19 02:20:21;;;;;;;6.18;3.22;;;;;;;-2.44;100.00;101211.41;1031481;28;20301;-83
2024/01/19 02:20:53;;;;;;;9.88;4.18;;;;;;;-2.41;100.00;101210.34;1030923;28;20313;-83
2024/01/19 02:21:25;;;;;;;9.65;3.60;;;;;;;-2.39;100.00;101218.84;1032061;28;20298;-83
2024/01/19 02:21:57;;;;;;;5.15;3.25;;;;;;;-2.44;100.00;101214.00;1029702;28;20302;-83
2024/01/19 02:22:29;;;;;;;5.70;3.45;;;;;;;-2.42;100.00;101217.31;1027197;28;20294;-84
2024/01/19 02:23:02;;;;;;;12.18;3.90;;;;;;;-2.44;100.00;101215.78;1030874;28;20304;-83
2024/01/19 02:23:44;;;;;;;9.30;3.65;;;;;;;-2.46;100.00;101215.91;1026851;28;20298;-83
2024/01/19 02:24:18;;;;;;;7.38;3.58;;;;;;;-2.54;100.00;101220.91;1025421;28;20302;-84
2024/01/19 02:24:49;;;;;;;4.22;3.33;;;;;;;-2.51;100.00;101216.25;1025106;28;20291;-84
2024/01/19 02:25:21;;;;;;;7.95;4.30;;;;;;;-2.56;100.00;101220.19;1029865;28;20309;-84
2024/01/19 02:25:53;;;;;;;3.70;3.22;;;;;;;-2.58;100.00;101219.50;1030719;28;20305;-83
2024/01/19 02:26:25;;;;;;;3.28;2.90;;;;;;;-2.50;100.00;101220.53;1035412;28;20648;-83